sensor_id;sensor_type;location;lat;lon;timestamp;temperature;humidity
6270;DHT22;3168;51.684;6.954;2022-09-27T00:01:14;10.10;99.90
6270;DHT22;3168;51.684;6.954;2022-09-27T00:03:39;10.10;99.90
6270;DHT22;3168;51.684;6.954;2022-09-27T00:06:12;10.20;99.90
6270;DHT22;3168;51.684;6.954;2022-09-27T00:08:34;10.10;99.90
6270;DHT22;3168;51.684;6.954;2022-09-27T00:11:00;10.10;99.90
6270;DHT22;3168;51.684;6.954;2022-09-27T00:13:26;10.10;99.90
6270;DHT22;3168;51.684;6.954;2022-09-27T00:15:58;10.10;99.90
6270;DHT22;3168;51.684;6.954;2022-09-27T00:18:23;10.10;99.90
6270;DHT22;3168;51.684;6.954;2022-09-27T00:20:49;10.10;99.90
6270;DHT22;3168;51.684;6.954;2022-09-27T00:23:15;10.10;99.90
6270;DHT22;3168;51.684;6.954;2022-09-27T00:25:41;10.10;99.90
6270;DHT22;3168;51.684;6.954;2022-09-27T00:28:07;10.10;99.90
6270;DHT22;3168;51.684;6.954;2022-09-27T00:30:33;10.10;99.90
6270;DHT22;3168;51.684;6.954;2022-09-27T00:32:58;10.10;99.90
6270;DHT22;3168;51.684;6.954;2022-09-27T00:35:24;10.00;99.90
6270;DHT22;3168;51.684;6.954;2022-09-27T00:37:50;10.00;99.90
6270;DHT22;3168;51.684;6.954;2022-09-27T00:40:16;10.00;99.90
6270;DHT22;3168;51.684;6.954;2022-09-27T00:42:42;10.10;99.90
6270;DHT22;3168;51.684;6.954;2022-09-27T00:45:12;10.00;99.90
6270;DHT22;3168;51.684;6.954;2022-09-27T00:47:40;10.10;99.90
6270;DHT22;3168;51.684;6.954;2022-09-27T00:50:09;10.00;99.90
6270;DHT22;3168;51.684;6.954;2022-09-27T00:55:16;10.00;99.90
6270;DHT22;3168;51.684;6.954;2022-09-27T00:57:41;10.00;99.90
6270;DHT22;3168;51.684;6.954;2022-09-27T01:00:08;10.00;99.90
6270;DHT22;3168;51.684;6.954;2022-09-27T01:02:34;10.00;99.90
6270;DHT22;3168;51.684;6.954;2022-09-27T01:04:59;10.00;99.90
6270;DHT22;3168;51.684;6.954;2022-09-27T01:07:25;10.00;99.90
6270;DHT22;3168;51.684;6.954;2022-09-27T01:09:51;10.00;99.90
6270;DHT22;3168;51.684;6.954;2022-09-27T01:15:17;10.00;99.90
6270;DHT22;3168;51.684;6.954;2022-09-27T01:17:43;10.00;99.90
6270;DHT22;3168;51.684;6.954;2022-09-27T01:23:31;10.10;99.90
6270;DHT22;3168;51.684;6.954;2022-09-27T01:26:12;10.00;99.90
6270;DHT22;3168;51.684;6.954;2022-09-27T01:31:46;10.00;99.90
6270;DHT22;3168;51.684;6.954;2022-09-27T01:34:13;10.00;99.90
6270;DHT22;3168;51.684;6.954;2022-09-27T01:36:43;10.00;99.90
6270;DHT22;3168;51.684;6.954;2022-09-27T01:39:45;10.00;99.90
6270;DHT22;3168;51.684;6.954;2022-09-27T01:41:57;10.10;99.90
6270;DHT22;3168;51.684;6.954;2022-09-27T01:44:29;10.10;99.90
6270;DHT22;3168;51.684;6.954;2022-09-27T01:46:54;10.00;99.90
6270;DHT22;3168;51.684;6.954;2022-09-27T01:49:23;10.00;99.90
6270;DHT22;3168;51.684;6.954;2022-09-27T01:51:49;10.00;99.90
6270;DHT22;3168;51.684;6.954;2022-09-27T01:54:15;10.10;99.90
6270;DHT22;3168;51.684;6.954;2022-09-27T01:56:40;10.10;99.90
6270;DHT22;3168;51.684;6.954;2022-09-27T01:59:10;10.10;99.90
6270;DHT22;3168;51.684;6.954;2022-09-27T02:01:36;10.10;99.90
6270;DHT22;3168;51.684;6.954;2022-09-27T02:04:01;10.00;99.90
6270;DHT22;3168;51.684;6.954;2022-09-27T02:06:33;10.00;99.90
6270;DHT22;3168;51.684;6.954;2022-09-27T02:09:01;10.00;99.90
6270;DHT22;3168;51.684;6.954;2022-09-27T02:11:25;10.00;99.90
6270;DHT22;3168;51.684;6.954;2022-09-27T02:13:58;10.00;99.90
6270;DHT22;3168;51.684;6.954;2022-09-27T02:16:28;10.00;99.90
6270;DHT22;3168;51.684;6.954;2022-09-27T02:22:23;9.90;99.90
6270;DHT22;3168;51.684;6.954;2022-09-27T02:27:30;9.90;99.90
6270;DHT22;3168;51.684;6.954;2022-09-27T02:30:10;9.90;99.90
6270;DHT22;3168;51.684;6.954;2022-09-27T02:32:36;9.90;99.90
6270;DHT22;3168;51.684;6.954;2022-09-27T02:35:06;9.90;99.90
6270;DHT22;3168;51.684;6.954;2022-09-27T02:37:29;9.90;99.90
6270;DHT22;3168;51.684;6.954;2022-09-27T02:39:55;9.90;99.90
6270;DHT22;3168;51.684;6.954;2022-09-27T02:42:21;9.90;99.90
6270;DHT22;3168;51.684;6.954;2022-09-27T02:44:48;9.90;99.90
6270;DHT22;3168;51.684;6.954;2022-09-27T02:50:21;9.90;99.90
6270;DHT22;3168;51.684;6.954;2022-09-27T02:53:03;9.90;99.90
6270;DHT22;3168;51.684;6.954;2022-09-27T02:58:46;9.90;99.90
6270;DHT22;3168;51.684;6.954;2022-09-27T03:01:21;9.90;99.90
6270;DHT22;3168;51.684;6.954;2022-09-27T03:03:47;9.80;99.90
6270;DHT22;3168;51.684;6.954;2022-09-27T03:06:11;9.80;99.90
6270;DHT22;3168;51.684;6.954;2022-09-27T03:08:37;9.80;99.90
6270;DHT22;3168;51.684;6.954;2022-09-27T03:11:02;9.70;99.90
6270;DHT22;3168;51.684;6.954;2022-09-27T03:13:28;9.70;99.90
6270;DHT22;3168;51.684;6.954;2022-09-27T03:15:54;9.70;99.90
6270;DHT22;3168;51.684;6.954;2022-09-27T03:18:20;9.60;99.90
6270;DHT22;3168;51.684;6.954;2022-09-27T03:20:46;9.60;99.90
6270;DHT22;3168;51.684;6.954;2022-09-27T03:23:12;9.50;99.90
6270;DHT22;3168;51.684;6.954;2022-09-27T03:25:39;9.60;99.90
6270;DHT22;3168;51.684;6.954;2022-09-27T03:28:04;9.60;99.90
6270;DHT22;3168;51.684;6.954;2022-09-27T03:30:30;9.60;99.90
6270;DHT22;3168;51.684;6.954;2022-09-27T03:32:56;9.50;99.90
6270;DHT22;3168;51.684;6.954;2022-09-27T03:35:22;9.50;99.90
6270;DHT22;3168;51.684;6.954;2022-09-27T03:37:48;9.70;99.90
6270;DHT22;3168;51.684;6.954;2022-09-27T03:40:14;9.60;99.90
6270;DHT22;3168;51.684;6.954;2022-09-27T03:42:39;9.60;99.90
6270;DHT22;3168;51.684;6.954;2022-09-27T03:45:06;9.60;99.90
6270;DHT22;3168;51.684;6.954;2022-09-27T03:47:32;9.50;99.90
6270;DHT22;3168;51.684;6.954;2022-09-27T03:49:58;9.60;99.90
6270;DHT22;3168;51.684;6.954;2022-09-27T03:52:24;9.60;99.90
6270;DHT22;3168;51.684;6.954;2022-09-27T03:54:50;9.70;99.90
6270;DHT22;3168;51.684;6.954;2022-09-27T03:57:16;9.60;99.90
6270;DHT22;3168;51.684;6.954;2022-09-27T03:59:42;9.60;99.90
6270;DHT22;3168;51.684;6.954;2022-09-27T04:02:08;9.70;99.90
6270;DHT22;3168;51.684;6.954;2022-09-27T04:04:34;9.60;99.90
6270;DHT22;3168;51.684;6.954;2022-09-27T04:07:00;9.60;99.90
6270;DHT22;3168;51.684;6.954;2022-09-27T04:09:26;9.70;99.90
6270;DHT22;3168;51.684;6.954;2022-09-27T04:11:52;9.70;99.90
6270;DHT22;3168;51.684;6.954;2022-09-27T04:14:18;9.60;99.90
6270;DHT22;3168;51.684;6.954;2022-09-27T04:16:44;9.60;99.90
6270;DHT22;3168;51.684;6.954;2022-09-27T04:19:10;9.60;99.90
6270;DHT22;3168;51.684;6.954;2022-09-27T04:21:35;9.60;99.90
6270;DHT22;3168;51.684;6.954;2022-09-27T04:24:01;9.50;99.90
6270;DHT22;3168;51.684;6.954;2022-09-27T04:26:28;9.50;99.90
6270;DHT22;3168;51.684;6.954;2022-09-27T04:28:54;9.50;99.90
6270;DHT22;3168;51.684;6.954;2022-09-27T04:31:20;9.50;99.90
6270;DHT22;3168;51.684;6.954;2022-09-27T04:33:46;9.50;99.90
6270;DHT22;3168;51.684;6.954;2022-09-27T04:36:14;9.40;99.90
6270;DHT22;3168;51.684;6.954;2022-09-27T04:38:45;9.40;99.90
6270;DHT22;3168;51.684;6.954;2022-09-27T04:41:11;9.40;99.90
6270;DHT22;3168;51.684;6.954;2022-09-27T04:43:38;9.30;99.90
6270;DHT22;3168;51.684;6.954;2022-09-27T04:46:04;9.30;99.90
6270;DHT22;3168;51.684;6.954;2022-09-27T04:48:29;9.40;99.90
6270;DHT22;3168;51.684;6.954;2022-09-27T04:50:56;9.40;99.90
6270;DHT22;3168;51.684;6.954;2022-09-27T04:53:21;9.30;99.90
6270;DHT22;3168;51.684;6.954;2022-09-27T04:55:48;9.40;99.90
6270;DHT22;3168;51.684;6.954;2022-09-27T04:58:13;9.30;99.90
6270;DHT22;3168;51.684;6.954;2022-09-27T05:00:39;9.30;99.90
6270;DHT22;3168;51.684;6.954;2022-09-27T05:03:06;9.30;99.90
6270;DHT22;3168;51.684;6.954;2022-09-27T05:05:32;9.20;99.90
6270;DHT22;3168;51.684;6.954;2022-09-27T05:07:58;9.20;99.90
6270;DHT22;3168;51.684;6.954;2022-09-27T05:10:23;9.20;99.90
6270;DHT22;3168;51.684;6.954;2022-09-27T05:12:49;9.20;99.90
6270;DHT22;3168;51.684;6.954;2022-09-27T05:15:15;9.20;99.90
6270;DHT22;3168;51.684;6.954;2022-09-27T05:17:41;9.20;99.90
6270;DHT22;3168;51.684;6.954;2022-09-27T05:20:07;9.20;99.90
6270;DHT22;3168;51.684;6.954;2022-09-27T05:22:33;9.10;99.90
6270;DHT22;3168;51.684;6.954;2022-09-27T05:24:59;9.20;99.90
6270;DHT22;3168;51.684;6.954;2022-09-27T05:27:25;9.10;99.90
6270;DHT22;3168;51.684;6.954;2022-09-27T05:29:52;9.20;99.90
6270;DHT22;3168;51.684;6.954;2022-09-27T05:32:18;9.20;99.90
6270;DHT22;3168;51.684;6.954;2022-09-27T05:34:43;9.10;99.90
6270;DHT22;3168;51.684;6.954;2022-09-27T05:37:09;9.10;99.90
6270;DHT22;3168;51.684;6.954;2022-09-27T05:39:35;9.10;99.90
6270;DHT22;3168;51.684;6.954;2022-09-27T05:42:02;9.10;99.90
6270;DHT22;3168;51.684;6.954;2022-09-27T05:44:28;9.20;99.90
6270;DHT22;3168;51.684;6.954;2022-09-27T05:46:54;9.10;99.90
6270;DHT22;3168;51.684;6.954;2022-09-27T05:49:19;9.10;99.90
6270;DHT22;3168;51.684;6.954;2022-09-27T05:51:45;9.10;99.90
6270;DHT22;3168;51.684;6.954;2022-09-27T05:54:11;9.10;99.90
6270;DHT22;3168;51.684;6.954;2022-09-27T05:56:37;9.10;99.90
6270;DHT22;3168;51.684;6.954;2022-09-27T05:59:03;9.10;99.90
6270;DHT22;3168;51.684;6.954;2022-09-27T06:01:29;9.10;99.90
6270;DHT22;3168;51.684;6.954;2022-09-27T06:03:55;9.10;99.90
6270;DHT22;3168;51.684;6.954;2022-09-27T06:06:21;9.10;99.90
6270;DHT22;3168;51.684;6.954;2022-09-27T06:08:48;9.10;99.90
6270;DHT22;3168;51.684;6.954;2022-09-27T06:11:14;9.10;99.90
6270;DHT22;3168;51.684;6.954;2022-09-27T06:13:40;9.10;99.90
6270;DHT22;3168;51.684;6.954;2022-09-27T06:16:06;9.10;99.90
6270;DHT22;3168;51.684;6.954;2022-09-27T06:18:31;9.20;99.90
6270;DHT22;3168;51.684;6.954;2022-09-27T06:20:58;9.10;99.90
6270;DHT22;3168;51.684;6.954;2022-09-27T06:23:23;9.10;99.90
6270;DHT22;3168;51.684;6.954;2022-09-27T06:25:49;9.20;99.90
6270;DHT22;3168;51.684;6.954;2022-09-27T06:28:15;9.10;99.90
6270;DHT22;3168;51.684;6.954;2022-09-27T06:30:42;9.20;99.90
6270;DHT22;3168;51.684;6.954;2022-09-27T06:33:08;9.20;99.90
6270;DHT22;3168;51.684;6.954;2022-09-27T06:35:33;9.20;99.90
6270;DHT22;3168;51.684;6.954;2022-09-27T06:38:01;9.20;99.90
6270;DHT22;3168;51.684;6.954;2022-09-27T06:40:24;9.20;99.90
6270;DHT22;3168;51.684;6.954;2022-09-27T06:42:51;9.20;99.90
6270;DHT22;3168;51.684;6.954;2022-09-27T06:45:17;9.20;99.90
6270;DHT22;3168;51.684;6.954;2022-09-27T06:47:43;9.10;99.90
6270;DHT22;3168;51.684;6.954;2022-09-27T06:50:09;9.20;99.90
6270;DHT22;3168;51.684;6.954;2022-09-27T06:52:35;9.20;99.90
6270;DHT22;3168;51.684;6.954;2022-09-27T06:55:00;9.30;99.90
6270;DHT22;3168;51.684;6.954;2022-09-27T06:57:26;9.30;99.90
6270;DHT22;3168;51.684;6.954;2022-09-27T06:59:58;9.30;99.90
6270;DHT22;3168;51.684;6.954;2022-09-27T07:02:30;9.30;99.90
6270;DHT22;3168;51.684;6.954;2022-09-27T07:04:56;9.40;99.90
6270;DHT22;3168;51.684;6.954;2022-09-27T07:07:22;9.40;99.90
6270;DHT22;3168;51.684;6.954;2022-09-27T07:09:48;9.40;99.90
6270;DHT22;3168;51.684;6.954;2022-09-27T07:12:13;9.40;99.90
6270;DHT22;3168;51.684;6.954;2022-09-27T07:14:39;9.40;99.90
6270;DHT22;3168;51.684;6.954;2022-09-27T07:17:05;9.40;99.90
6270;DHT22;3168;51.684;6.954;2022-09-27T07:19:31;9.50;99.90
6270;DHT22;3168;51.684;6.954;2022-09-27T07:21:57;9.50;99.90
6270;DHT22;3168;51.684;6.954;2022-09-27T07:24:23;9.50;99.90
6270;DHT22;3168;51.684;6.954;2022-09-27T07:26:49;9.50;99.90
6270;DHT22;3168;51.684;6.954;2022-09-27T07:29:15;9.40;99.90
6270;DHT22;3168;51.684;6.954;2022-09-27T07:31:40;9.30;99.90
6270;DHT22;3168;51.684;6.954;2022-09-27T07:34:06;9.40;99.90
6270;DHT22;3168;51.684;6.954;2022-09-27T07:36:32;9.40;99.90
6270;DHT22;3168;51.684;6.954;2022-09-27T07:38:58;9.50;99.90
6270;DHT22;3168;51.684;6.954;2022-09-27T07:41:24;9.40;99.90
6270;DHT22;3168;51.684;6.954;2022-09-27T07:43:50;9.50;99.90
6270;DHT22;3168;51.684;6.954;2022-09-27T07:46:16;9.50;99.90
6270;DHT22;3168;51.684;6.954;2022-09-27T07:48:41;9.50;99.90
6270;DHT22;3168;51.684;6.954;2022-09-27T07:51:07;9.50;99.90
6270;DHT22;3168;51.684;6.954;2022-09-27T07:53:33;9.60;99.90
6270;DHT22;3168;51.684;6.954;2022-09-27T07:56:00;9.80;99.90
6270;DHT22;3168;51.684;6.954;2022-09-27T07:58:26;9.80;99.90
6270;DHT22;3168;51.684;6.954;2022-09-27T08:00:53;9.90;99.90
6270;DHT22;3168;51.684;6.954;2022-09-27T08:03:19;9.80;99.90
6270;DHT22;3168;51.684;6.954;2022-09-27T08:05:46;9.80;99.90
6270;DHT22;3168;51.684;6.954;2022-09-27T08:08:13;10.00;96.70
6270;DHT22;3168;51.684;6.954;2022-09-27T08:10:38;10.00;96.70
6270;DHT22;3168;51.684;6.954;2022-09-27T08:13:04;10.20;97.40
6270;DHT22;3168;51.684;6.954;2022-09-27T08:15:30;10.40;96.50
6270;DHT22;3168;51.684;6.954;2022-09-27T08:17:56;10.40;92.00
6270;DHT22;3168;51.684;6.954;2022-09-27T08:20:21;10.50;91.40
6270;DHT22;3168;51.684;6.954;2022-09-27T08:22:47;10.50;91.60
6270;DHT22;3168;51.684;6.954;2022-09-27T08:25:13;10.50;91.60
6270;DHT22;3168;51.684;6.954;2022-09-27T08:27:40;10.50;90.20
6270;DHT22;3168;51.684;6.954;2022-09-27T08:30:06;10.30;88.00
6270;DHT22;3168;51.684;6.954;2022-09-27T08:32:32;10.30;90.90
6270;DHT22;3168;51.684;6.954;2022-09-27T08:34:58;10.40;92.00
6270;DHT22;3168;51.684;6.954;2022-09-27T08:37:24;10.60;91.50
6270;DHT22;3168;51.684;6.954;2022-09-27T08:39:50;10.60;91.10
6270;DHT22;3168;51.684;6.954;2022-09-27T08:42:23;10.70;90.20
6270;DHT22;3168;51.684;6.954;2022-09-27T08:47:47;10.90;90.50
6270;DHT22;3168;51.684;6.954;2022-09-27T08:50:24;11.00;89.60
6270;DHT22;3168;51.684;6.954;2022-09-27T08:52:55;11.10;87.00
6270;DHT22;3168;51.684;6.954;2022-09-27T08:55:21;11.20;88.60
6270;DHT22;3168;51.684;6.954;2022-09-27T08:57:47;11.20;86.00
6270;DHT22;3168;51.684;6.954;2022-09-27T09:00:11;11.10;84.10
6270;DHT22;3168;51.684;6.954;2022-09-27T09:02:37;11.20;83.80
6270;DHT22;3168;51.684;6.954;2022-09-27T09:05:07;11.10;82.40
6270;DHT22;3168;51.684;6.954;2022-09-27T09:08:59;11.20;83.00
6270;DHT22;3168;51.684;6.954;2022-09-27T09:10:47;11.10;79.50
6270;DHT22;3168;51.684;6.954;2022-09-27T09:13:44;11.20;84.30
6270;DHT22;3168;51.684;6.954;2022-09-27T09:19:32;11.10;81.40
6270;DHT22;3168;51.684;6.954;2022-09-27T09:21:58;11.00;78.50
6270;DHT22;3168;51.684;6.954;2022-09-27T09:24:33;11.00;81.50
6270;DHT22;3168;51.684;6.954;2022-09-27T09:28:10;11.00;83.40
6270;DHT22;3168;51.684;6.954;2022-09-27T09:30:53;10.90;79.90
6270;DHT22;3168;51.684;6.954;2022-09-27T09:35:10;10.90;82.40
6270;DHT22;3168;51.684;6.954;2022-09-27T09:37:34;10.80;76.90
6270;DHT22;3168;51.684;6.954;2022-09-27T09:40:02;10.80;78.40
6270;DHT22;3168;51.684;6.954;2022-09-27T09:42:32;10.80;80.70
6270;DHT22;3168;51.684;6.954;2022-09-27T09:45:18;10.90;81.50
6270;DHT22;3168;51.684;6.954;2022-09-27T09:47:56;10.80;83.90
6270;DHT22;3168;51.684;6.954;2022-09-27T09:50:21;10.70;84.90
6270;DHT22;3168;51.684;6.954;2022-09-27T09:52:47;10.70;88.10
6270;DHT22;3168;51.684;6.954;2022-09-27T09:55:20;10.80;88.20
6270;DHT22;3168;51.684;6.954;2022-09-27T09:57:49;10.80;84.10
6270;DHT22;3168;51.684;6.954;2022-09-27T10:00:14;10.80;83.90
6270;DHT22;3168;51.684;6.954;2022-09-27T10:02:41;10.80;86.00
6270;DHT22;3168;51.684;6.954;2022-09-27T10:05:06;11.00;88.10
6270;DHT22;3168;51.684;6.954;2022-09-27T10:07:32;11.00;90.00
6270;DHT22;3168;51.684;6.954;2022-09-27T10:09:58;10.80;86.20
6270;DHT22;3168;51.684;6.954;2022-09-27T10:12:24;10.60;88.80
6270;DHT22;3168;51.684;6.954;2022-09-27T10:14:50;10.70;92.40
6270;DHT22;3168;51.684;6.954;2022-09-27T10:17:18;10.60;92.80
6270;DHT22;3168;51.684;6.954;2022-09-27T10:19:42;10.60;93.30
6270;DHT22;3168;51.684;6.954;2022-09-27T10:24:59;10.80;95.10
6270;DHT22;3168;51.684;6.954;2022-09-27T10:27:24;10.90;94.70
6270;DHT22;3168;51.684;6.954;2022-09-27T10:29:56;10.70;91.00
6270;DHT22;3168;51.684;6.954;2022-09-27T10:32:22;10.90;94.40
6270;DHT22;3168;51.684;6.954;2022-09-27T10:34:47;11.10;92.40
6270;DHT22;3168;51.684;6.954;2022-09-27T10:37:15;11.30;88.70
6270;DHT22;3168;51.684;6.954;2022-09-27T10:39:39;11.50;84.40
6270;DHT22;3168;51.684;6.954;2022-09-27T10:42:33;11.70;80.90
6270;DHT22;3168;51.684;6.954;2022-09-27T10:44:58;11.80;78.80
6270;DHT22;3168;51.684;6.954;2022-09-27T10:47:24;12.00;69.80
6270;DHT22;3168;51.684;6.954;2022-09-27T10:49:50;12.00;69.80
6270;DHT22;3168;51.684;6.954;2022-09-27T10:52:17;12.00;71.90
6270;DHT22;3168;51.684;6.954;2022-09-27T10:54:43;12.00;71.70
6270;DHT22;3168;51.684;6.954;2022-09-27T10:57:17;11.90;71.70
6270;DHT22;3168;51.684;6.954;2022-09-27T10:59:43;12.10;72.10
6270;DHT22;3168;51.684;6.954;2022-09-27T11:02:18;12.10;72.00
6270;DHT22;3168;51.684;6.954;2022-09-27T11:04:40;12.30;70.10
6270;DHT22;3168;51.684;6.954;2022-09-27T11:07:16;12.10;63.60
6270;DHT22;3168;51.684;6.954;2022-09-27T11:09:46;12.10;67.30
6270;DHT22;3168;51.684;6.954;2022-09-27T11:12:12;11.90;71.80
6270;DHT22;3168;51.684;6.954;2022-09-27T11:14:37;11.70;71.50
6270;DHT22;3168;51.684;6.954;2022-09-27T11:17:12;11.60;76.10
6270;DHT22;3168;51.684;6.954;2022-09-27T11:19:46;11.60;80.20
6270;DHT22;3168;51.684;6.954;2022-09-27T11:22:20;11.40;90.00
6270;DHT22;3168;51.684;6.954;2022-09-27T11:27:43;10.90;95.00
6270;DHT22;3168;51.684;6.954;2022-09-27T11:30:15;10.90;98.40
6270;DHT22;3168;51.684;6.954;2022-09-27T11:33:05;10.70;99.60
6270;DHT22;3168;51.684;6.954;2022-09-27T11:38:16;10.80;99.90
6270;DHT22;3168;51.684;6.954;2022-09-27T11:40:52;10.90;99.90
6270;DHT22;3168;51.684;6.954;2022-09-27T11:43:17;10.80;98.40
6270;DHT22;3168;51.684;6.954;2022-09-27T11:45:44;10.90;98.10
6270;DHT22;3168;51.684;6.954;2022-09-27T11:48:22;10.90;98.50
6270;DHT22;3168;51.684;6.954;2022-09-27T11:50:54;11.00;99.10
6270;DHT22;3168;51.684;6.954;2022-09-27T11:53:24;11.10;98.60
6270;DHT22;3168;51.684;6.954;2022-09-27T11:56:07;11.20;97.70
6270;DHT22;3168;51.684;6.954;2022-09-27T12:01:16;11.20;91.10
6270;DHT22;3168;51.684;6.954;2022-09-27T12:03:42;11.00;88.30
6270;DHT22;3168;51.684;6.954;2022-09-27T12:06:12;11.00;90.20
6270;DHT22;3168;51.684;6.954;2022-09-27T12:08:48;11.30;93.00
6270;DHT22;3168;51.684;6.954;2022-09-27T12:11:17;11.50;92.60
6270;DHT22;3168;51.684;6.954;2022-09-27T12:13:44;11.60;89.00
6270;DHT22;3168;51.684;6.954;2022-09-27T12:16:08;11.70;83.60
6270;DHT22;3168;51.684;6.954;2022-09-27T12:18:35;11.50;66.80
6270;DHT22;3168;51.684;6.954;2022-09-27T12:21:01;11.40;69.90
6270;DHT22;3168;51.684;6.954;2022-09-27T12:23:35;11.40;65.00
6270;DHT22;3168;51.684;6.954;2022-09-27T12:25:58;11.50;67.00
6270;DHT22;3168;51.684;6.954;2022-09-27T12:28:35;11.80;65.90
6270;DHT22;3168;51.684;6.954;2022-09-27T12:31:03;11.80;65.90
6270;DHT22;3168;51.684;6.954;2022-09-27T12:33:31;12.10;65.30
6270;DHT22;3168;51.684;6.954;2022-09-27T12:35:56;12.30;63.20
6270;DHT22;3168;51.684;6.954;2022-09-27T12:38:23;12.30;57.20
6270;DHT22;3168;51.684;6.954;2022-09-27T12:40:47;12.30;60.70
6270;DHT22;3168;51.684;6.954;2022-09-27T12:43:25;12.30;53.80
6270;DHT22;3168;51.684;6.954;2022-09-27T12:46:03;12.20;50.70
6270;DHT22;3168;51.684;6.954;2022-09-27T12:48:33;11.90;46.30
6270;DHT22;3168;51.684;6.954;2022-09-27T12:50:57;11.90;52.50
6270;DHT22;3168;51.684;6.954;2022-09-27T12:53:22;11.90;54.80
6270;DHT22;3168;51.684;6.954;2022-09-27T12:56:03;12.10;59.60
6270;DHT22;3168;51.684;6.954;2022-09-27T13:01:56;12.10;52.70
6270;DHT22;3168;51.684;6.954;2022-09-27T13:05:17;11.90;53.50
6270;DHT22;3168;51.684;6.954;2022-09-27T13:10:34;11.80;53.20
6270;DHT22;3168;51.684;6.954;2022-09-27T13:12:58;11.90;41.50
6270;DHT22;3168;51.684;6.954;2022-09-27T13:15:27;12.10;42.20
6270;DHT22;3168;51.684;6.954;2022-09-27T13:17:54;12.10;42.50
6270;DHT22;3168;51.684;6.954;2022-09-27T13:22:52;12.30;44.60
6270;DHT22;3168;51.684;6.954;2022-09-27T13:30:45;12.10;49.10
6270;DHT22;3168;51.684;6.954;2022-09-27T13:33:32;11.90;47.50
6270;DHT22;3168;51.684;6.954;2022-09-27T13:36:06;11.80;44.20
6270;DHT22;3168;51.684;6.954;2022-09-27T13:38:31;11.70;48.80
6270;DHT22;3168;51.684;6.954;2022-09-27T13:43:44;11.90;41.70
6270;DHT22;3168;51.684;6.954;2022-09-27T13:46:12;11.80;34.80
6270;DHT22;3168;51.684;6.954;2022-09-27T13:48:46;11.80;36.00
6270;DHT22;3168;51.684;6.954;2022-09-27T13:51:33;11.80;41.50
6270;DHT22;3168;51.684;6.954;2022-09-27T13:54:01;11.80;39.50
6270;DHT22;3168;51.684;6.954;2022-09-27T13:59:22;11.90;40.50
6270;DHT22;3168;51.684;6.954;2022-09-27T14:01:50;12.00;41.30
6270;DHT22;3168;51.684;6.954;2022-09-27T14:04:18;12.00;35.50
6270;DHT22;3168;51.684;6.954;2022-09-27T14:06:43;11.90;28.40
6270;DHT22;3168;51.684;6.954;2022-09-27T14:09:18;12.10;31.70
6270;DHT22;3168;51.684;6.954;2022-09-27T14:11:43;12.20;28.50
6270;DHT22;3168;51.684;6.954;2022-09-27T14:14:14;12.40;22.80
6270;DHT22;3168;51.684;6.954;2022-09-27T14:16:40;12.40;26.00
6270;DHT22;3168;51.684;6.954;2022-09-27T14:19:05;12.60;26.20
6270;DHT22;3168;51.684;6.954;2022-09-27T14:21:35;12.70;15.10
6270;DHT22;3168;51.684;6.954;2022-09-27T14:26:46;12.60;9.80
6270;DHT22;3168;51.684;6.954;2022-09-27T14:29:16;12.60;2.80
6270;DHT22;3168;51.684;6.954;2022-09-27T14:31:41;12.40;6.60
6270;DHT22;3168;51.684;6.954;2022-09-27T14:34:07;12.40;5.20
6270;DHT22;3168;51.684;6.954;2022-09-27T14:36:33;12.20;13.50
6270;DHT22;3168;51.684;6.954;2022-09-27T14:39:11;12.10;4.20
6270;DHT22;3168;51.684;6.954;2022-09-27T14:41:36;12.00;9.60
6270;DHT22;3168;51.684;6.954;2022-09-27T14:44:02;11.90;16.90
6270;DHT22;3168;51.684;6.954;2022-09-27T14:46:29;12.00;18.50
6270;DHT22;3168;51.684;6.954;2022-09-27T14:48:53;12.10;14.60
6270;DHT22;3168;51.684;6.954;2022-09-27T14:51:20;12.00;14.60
6270;DHT22;3168;51.684;6.954;2022-09-27T14:53:48;12.10;16.40
6270;DHT22;3168;51.684;6.954;2022-09-27T14:56:17;12.10;18.90
6270;DHT22;3168;51.684;6.954;2022-09-27T14:58:42;12.10;19.60
6270;DHT22;3168;51.684;6.954;2022-09-27T15:01:11;12.10;16.80
6270;DHT22;3168;51.684;6.954;2022-09-27T15:03:33;12.00;16.90
6270;DHT22;3168;51.684;6.954;2022-09-27T15:05:59;11.90;14.50
6270;DHT22;3168;51.684;6.954;2022-09-27T15:08:27;11.70;16.90
6270;DHT22;3168;51.684;6.954;2022-09-27T15:10:52;11.80;19.50
6270;DHT22;3168;51.684;6.954;2022-09-27T15:13:18;11.70;20.60
6270;DHT22;3168;51.684;6.954;2022-09-27T15:15:43;11.80;22.30
6270;DHT22;3168;51.684;6.954;2022-09-27T15:20:52;11.80;25.80
6270;DHT22;3168;51.684;6.954;2022-09-27T15:23:24;11.80;26.30
6270;DHT22;3168;51.684;6.954;2022-09-27T15:25:43;11.80;20.30
6270;DHT22;3168;51.684;6.954;2022-09-27T15:28:15;11.90;19.20
6270;DHT22;3168;51.684;6.954;2022-09-27T15:30:54;11.90;22.40
6270;DHT22;3168;51.684;6.954;2022-09-27T15:33:18;11.90;18.00
6270;DHT22;3168;51.684;6.954;2022-09-27T15:35:47;12.00;22.40
6270;DHT22;3168;51.684;6.954;2022-09-27T15:38:31;11.90;18.90
6270;DHT22;3168;51.684;6.954;2022-09-27T15:40:57;11.90;22.40
6270;DHT22;3168;51.684;6.954;2022-09-27T15:43:29;11.80;18.30
6270;DHT22;3168;51.684;6.954;2022-09-27T15:45:55;11.80;20.70
6270;DHT22;3168;51.684;6.954;2022-09-27T15:48:20;11.70;17.50
6270;DHT22;3168;51.684;6.954;2022-09-27T15:50:47;11.60;19.10
6270;DHT22;3168;51.684;6.954;2022-09-27T15:53:17;11.60;22.20
6270;DHT22;3168;51.684;6.954;2022-09-27T15:55:39;11.70;24.70
6270;DHT22;3168;51.684;6.954;2022-09-27T15:58:06;11.70;22.30
6270;DHT22;3168;51.684;6.954;2022-09-27T16:00:31;11.60;24.10
6270;DHT22;3168;51.684;6.954;2022-09-27T16:02:56;11.60;25.60
6270;DHT22;3168;51.684;6.954;2022-09-27T16:05:22;11.50;27.40
6270;DHT22;3168;51.684;6.954;2022-09-27T16:07:48;11.60;25.50
6270;DHT22;3168;51.684;6.954;2022-09-27T16:10:17;11.50;25.70
6270;DHT22;3168;51.684;6.954;2022-09-27T16:12:43;11.50;24.20
6270;DHT22;3168;51.684;6.954;2022-09-27T16:15:09;11.50;22.40
6270;DHT22;3168;51.684;6.954;2022-09-27T16:17:34;11.50;21.20
6270;DHT22;3168;51.684;6.954;2022-09-27T16:20:00;11.50;20.20
6270;DHT22;3168;51.684;6.954;2022-09-27T16:22:26;11.40;20.20
6270;DHT22;3168;51.684;6.954;2022-09-27T16:24:52;11.50;22.80
6270;DHT22;3168;51.684;6.954;2022-09-27T16:27:23;11.40;23.60
6270;DHT22;3168;51.684;6.954;2022-09-27T16:29:48;11.40;25.70
6270;DHT22;3168;51.684;6.954;2022-09-27T16:32:14;11.40;25.80
6270;DHT22;3168;51.684;6.954;2022-09-27T16:34:40;11.40;25.90
6270;DHT22;3168;51.684;6.954;2022-09-27T16:37:06;11.40;28.90
6270;DHT22;3168;51.684;6.954;2022-09-27T16:39:31;11.30;29.60
6270;DHT22;3168;51.684;6.954;2022-09-27T16:41:57;11.30;33.30
6270;DHT22;3168;51.684;6.954;2022-09-27T16:44:23;11.30;32.30
6270;DHT22;3168;51.684;6.954;2022-09-27T16:46:49;11.20;34.20
6270;DHT22;3168;51.684;6.954;2022-09-27T16:49:15;11.30;34.20
6270;DHT22;3168;51.684;6.954;2022-09-27T16:51:47;11.20;36.10
6270;DHT22;3168;51.684;6.954;2022-09-27T16:54:18;11.20;38.50
6270;DHT22;3168;51.684;6.954;2022-09-27T16:56:44;11.20;42.90
6270;DHT22;3168;51.684;6.954;2022-09-27T16:59:10;11.20;45.60
6270;DHT22;3168;51.684;6.954;2022-09-27T17:01:36;11.10;47.10
6270;DHT22;3168;51.684;6.954;2022-09-27T17:04:02;11.10;48.50
6270;DHT22;3168;51.684;6.954;2022-09-27T17:06:27;11.10;47.60
6270;DHT22;3168;51.684;6.954;2022-09-27T17:08:54;11.10;51.00
6270;DHT22;3168;51.684;6.954;2022-09-27T17:11:21;11.00;43.50
6270;DHT22;3168;51.684;6.954;2022-09-27T17:13:47;11.00;43.70
6270;DHT22;3168;51.684;6.954;2022-09-27T17:16:14;11.00;43.50
6270;DHT22;3168;51.684;6.954;2022-09-27T17:18:39;10.90;39.00
6270;DHT22;3168;51.684;6.954;2022-09-27T17:21:06;10.90;39.60